Time;durP1;ratioP1;P1;durP2;ratioP2;P2;SDS_P1;SDS_P2;PMS_P1;PMS_P2;Temp;Humidity;BMP_temperature;BMP_pressure;BME280_temperature;BME280_humidity;BME280_pressure;Samples;Min_cycle;Max_cycle;Signal;HPM_P1;HPM_P2
2021/12/08 00:00:13;;;;;;;4.43;3.30;;;;;;;4.12;100.00;98659.44;5007581;28;20195;-53
2021/12/08 00:02:38;;;;;;;3.50;3.20;;;;;;;4.10;100.00;98665.44;5005864;28;20224;-53
2021/12/08 00:05:06;;;;;;;2.93;2.63;;;;;;;4.10;100.00;98661.16;5007397;28;20726;-53
2021/12/08 00:07:32;;;;;;;3.50;3.00;;;;;;;4.11;100.00;98665.41;5005843;28;20255;-53
2021/12/08 00:10:14;;;;;;;3.87;2.63;;;;;;;4.12;100.00;98669.66;5005079;28;20554;-53
2021/12/08 00:15:26;;;;;;;2.67;1.63;;;;;;;4.22;100.00;98669.59;5003501;28;20214;-54
2021/12/08 00:17:51;;;;;;;2.40;1.33;;;;;;;4.26;100.00;98677.25;5003375;28;20207;-54
2021/12/08 00:20:17;;;;;;;1.73;1.10;;;;;;;4.28;100.00;98672.09;5005412;28;20205;-54
2021/12/08 00:22:43;;;;;;;2.03;1.50;;;;;;;4.32;100.00;98675.47;5005162;28;20273;-53
2021/12/08 00:25:09;;;;;;;1.40;1.10;;;;;;;4.33;100.00;98665.22;5001807;28;20199;-54
2021/12/08 00:27:34;;;;;;;1.17;1.00;;;;;;;4.35;100.00;98665.19;5006574;28;20234;-54
2021/12/08 00:30:00;;;;;;;2.27;0.90;;;;;;;4.38;100.00;98667.72;5007085;28;20267;-54
2021/12/08 00:32:28;;;;;;;2.60;1.50;;;;;;;4.40;100.00;98669.41;4996168;28;20209;-54
2021/12/08 00:34:54;;;;;;;3.37;1.40;;;;;;;4.42;100.00;98661.72;5012241;28;20668;-54
2021/12/08 00:37:20;;;;;;;1.93;1.00;;;;;;;4.43;100.00;98673.66;5001799;28;20208;-54
2021/12/08 00:39:46;;;;;;;1.73;1.30;;;;;;;4.42;100.00;98662.56;5002623;28;21121;-54
2021/12/08 00:42:11;;;;;;;1.17;0.90;;;;;;;4.45;100.00;98669.38;5010160;28;20248;-54
2021/12/08 00:44:37;;;;;;;1.60;1.10;;;;;;;4.46;100.00;98672.78;5009654;28;20279;-54
2021/12/08 00:47:03;;;;;;;1.90;1.00;;;;;;;4.46;100.00;98673.66;5005082;28;20564;-54
2021/12/08 00:49:29;;;;;;;1.53;1.10;;;;;;;4.47;100.00;98685.56;5008661;28;20200;-53
2021/12/08 00:51:54;;;;;;;2.63;1.07;;;;;;;4.47;100.00;98679.59;5003647;28;20192;-54
2021/12/08 00:54:20;;;;;;;1.63;1.10;;;;;;;4.47;100.00;98690.69;5006452;28;20183;-54
2021/12/08 00:56:45;;;;;;;2.03;1.30;;;;;;;4.46;100.00;98693.28;5009895;28;20685;-54
2021/12/08 00:59:11;;;;;;;2.07;1.50;;;;;;;4.43;100.00;98702.69;5009311;28;20240;-54
2021/12/08 01:01:37;;;;;;;3.50;1.83;;;;;;;4.37;100.00;98707.88;5004446;28;20188;-54
2021/12/08 01:04:03;;;;;;;2.17;1.97;;;;;;;4.32;100.00;98719.00;5005627;28;20659;-55
2021/12/08 01:06:29;;;;;;;2.90;1.73;;;;;;;4.26;100.00;98718.22;5002984;28;20211;-54
2021/12/08 01:08:54;;;;;;;2.30;1.80;;;;;;;4.23;100.00;98722.53;5000771;28;20522;-54
2021/12/08 01:11:21;;;;;;;3.87;2.20;;;;;;;4.21;100.00;98730.19;5003944;28;20192;-54
2021/12/08 01:13:47;;;;;;;2.40;2.20;;;;;;;4.20;100.00;98743.03;5007268;28;20783;-54
2021/12/08 01:16:14;;;;;;;3.57;2.50;;;;;;;4.18;100.00;98745.56;5005589;28;20212;-55
2021/12/08 01:18:40;;;;;;;2.93;2.63;;;;;;;4.13;100.00;98752.47;5010073;28;20300;-55
2021/12/08 01:21:08;;;;;;;4.20;3.70;;;;;;;4.08;100.00;98751.63;5003597;28;20207;-53
2021/12/08 01:23:34;;;;;;;4.13;3.03;;;;;;;4.03;100.00;98755.94;5003355;28;20371;-54
2021/12/08 01:26:00;;;;;;;5.40;3.43;;;;;;;3.98;100.00;98755.97;5020997;28;20743;-54
2021/12/08 01:28:26;;;;;;;4.53;3.57;;;;;;;3.95;100.00;98758.53;5009996;28;20280;-53
2021/12/08 01:30:54;;;;;;;4.13;2.90;;;;;;;3.91;100.00;98773.09;5003455;28;20529;-55
2021/12/08 01:33:23;;;;;;;3.50;3.20;;;;;;;3.88;100.00;98765.41;5008362;28;20207;-55
2021/12/08 01:35:49;;;;;;;4.73;3.57;;;;;;;3.84;100.00;98762.88;5009334;28;20191;-54
2021/12/08 01:38:15;;;;;;;4.27;3.33;;;;;;;3.81;100.00;98763.78;5005262;28;20207;-54
2021/12/08 01:40:42;;;;;;;5.73;4.47;;;;;;;3.80;100.00;98764.63;5007278;28;20206;-54
2021/12/08 01:43:23;;;;;;;4.57;4.00;;;;;;;3.79;100.00;98765.47;5003707;28;20180;-54
2021/12/08 01:46:00;;;;;;;4.70;4.03;;;;;;;3.77;100.00;98750.16;5005795;28;20180;-54
2021/12/08 01:48:31;;;;;;;5.23;4.07;;;;;;;3.76;100.00;98745.03;5004883;28;20183;-53
2021/12/08 01:51:06;;;;;;;5.77;4.40;;;;;;;3.75;100.00;98730.53;5009882;28;20282;-54
2021/12/08 01:53:32;;;;;;;5.13;4.60;;;;;;;3.72;100.00;98730.53;5013939;27;20306;-54
2021/12/08 01:55:59;;;;;;;8.27;6.07;;;;;;;3.73;100.00;98732.25;5010259;28;20192;-54
2021/12/08 01:58:25;;;;;;;7.93;6.07;;;;;;;3.71;100.00;98704.13;5017350;28;20192;-54
2021/12/08 02:01:00;;;;;;;9.27;6.03;;;;;;;3.69;100.00;98694.78;5007997;28;20292;-54
2021/12/08 02:03:27;;;;;;;6.50;5.63;;;;;;;3.65;100.00;98682.00;5006780;28;20446;-54
2021/12/08 02:05:53;;;;;;;8.23;6.47;;;;;;;3.64;100.00;98664.94;5015307;27;20189;-54
2021/12/08 02:08:19;;;;;;;8.23;5.90;;;;;;;3.61;100.00;98657.28;5013280;28;20697;-54
2021/12/08 02:10:45;;;;;;;6.70;6.00;;;;;;;3.57;100.00;98650.47;5009698;28;20254;-54
2021/12/08 02:13:11;;;;;;;7.43;6.27;;;;;;;3.55;100.00;98651.34;5000382;28;20311;-54
2021/12/08 02:15:38;;;;;;;6.20;5.60;;;;;;;3.54;100.00;98639.44;5000587;28;20767;-54
2021/12/08 02:18:06;;;;;;;7.20;5.30;;;;;;;3.53;100.00;98636.03;5014049;28;20208;-54
2021/12/08 02:20:32;;;;;;;6.07;5.23;;;;;;;3.53;100.00;98632.59;5032329;28;20184;-54
2021/12/08 02:22:57;;;;;;;6.83;5.37;;;;;;;3.53;100.00;98624.94;5009537;28;20186;-54
2021/12/08 02:25:26;;;;;;;5.67;4.87;;;;;;;3.49;100.00;98619.84;5011798;28;20214;-55
2021/12/08 02:27:54;;;;;;;6.30;4.73;;;;;;;3.45;100.00;98610.50;5027383;28;20550;-54
2021/12/08 02:30:29;;;;;;;5.33;4.83;;;;;;;3.41;100.00;98610.53;5008832;28;20188;-55
2021/12/08 02:49:12;;;;;;;5.10;4.60;;;;;;;3.30;100.00;98621.69;5013235;28;20192;-54
2021/12/08 02:51:38;;;;;;;6.97;4.90;;;;;;;3.27;100.00;98621.69;5006544;28;20632;-54
2021/12/08 02:54:04;;;;;;;6.53;5.07;;;;;;;3.23;100.00;98622.59;5016256;28;20215;-54
2021/12/08 02:56:30;;;;;;;6.30;5.30;;;;;;;3.19;100.00;98624.28;5008513;28;20691;-54
2021/12/08 02:58:57;;;;;;;7.23;5.67;;;;;;;3.16;100.00;98634.56;5005564;28;20215;-54
2021/12/08 03:01:22;;;;;;;6.40;4.83;;;;;;;3.13;100.00;98624.34;5007107;28;20258;-54
2021/12/08 03:03:48;;;;;;;7.23;5.47;;;;;;;3.13;100.00;98620.94;5105511;27;20188;-54
2021/12/08 03:06:13;;;;;;;5.97;5.30;;;;;;;3.12;100.00;98626.91;5003699;28;20404;-54
2021/12/08 03:08:39;;;;;;;7.93;5.70;;;;;;;3.09;100.00;98627.78;5001998;28;20601;-54
2021/12/08 03:11:04;;;;;;;6.97;5.90;;;;;;;3.09;100.00;98632.88;5007123;28;20193;-54
2021/12/08 03:13:30;;;;;;;5.60;4.87;;;;;;;3.10;100.00;98628.63;5024099;27;20310;-54
2021/12/08 03:15:55;;;;;;;5.83;5.07;;;;;;;3.12;100.00;98624.34;5005644;28;20720;-54
2021/12/08 03:18:22;;;;;;;4.50;4.10;;;;;;;3.14;100.00;98632.84;4999824;28;20193;-54
2021/12/08 03:20:49;;;;;;;5.10;4.60;;;;;;;3.18;100.00;98650.72;5002106;28;20186;-54
2021/12/08 03:23:21;;;;;;;5.37;4.80;;;;;;;3.21;100.00;98649.88;5012764;28;20628;-55
2021/12/08 03:25:55;;;;;;;5.77;5.17;;;;;;;3.23;100.00;98648.16;5010820;28;20425;-54
2021/12/08 03:28:26;;;;;;;7.60;6.33;;;;;;;3.24;100.00;98646.44;5008282;28;20191;-54
2021/12/08 03:33:46;;;;;;;8.60;7.00;;;;;;;3.15;100.00;98657.56;4996781;28;20228;-55
2021/12/08 03:36:12;;;;;;;7.43;6.40;;;;;;;3.11;100.00;98658.41;5011017;28;20199;-54
2021/12/08 03:38:39;;;;;;;7.07;6.37;;;;;;;3.07;100.00;98664.44;5006541;28;20642;-54
2021/12/08 03:41:06;;;;;;;6.73;6.10;;;;;;;3.02;100.00;98661.91;5002288;28;20961;-54
2021/12/08 03:43:32;;;;;;;6.90;6.20;;;;;;;3.04;100.00;98670.38;5008946;28;20185;-54
2021/12/08 03:45:58;;;;;;;6.47;5.90;;;;;;;3.04;100.00;98675.50;5002570;28;20188;-54
2021/12/08 03:48:43;;;;;;;6.17;5.57;;;;;;;3.07;100.00;98678.03;5013186;28;20188;-54
2021/12/08 03:51:09;;;;;;;6.50;5.83;;;;;;;3.07;100.00;98672.94;5003166;28;20249;-54
2021/12/08 03:53:34;;;;;;;6.50;5.80;;;;;;;3.08;100.00;98666.13;5008237;28;20209;-55
2021/12/08 03:56:00;;;;;;;6.00;5.50;;;;;;;3.09;100.00;98672.94;5001976;28;20270;-54
2021/12/08 03:58:25;;;;;;;7.30;5.60;;;;;;;3.11;100.00;98673.75;5010699;27;20220;-53
2021/12/08 04:00:55;;;;;;;6.27;5.77;;;;;;;3.11;100.00;98676.31;5004707;28;20230;-55
2021/12/08 04:03:22;;;;;;;6.50;5.90;;;;;;;3.13;100.00;98679.72;5012006;28;20196;-54
2021/12/08 04:05:59;;;;;;;7.23;6.57;;;;;;;3.14;100.00;98681.41;5001622;28;20195;-55
2021/12/08 04:08:40;;;;;;;6.90;5.50;;;;;;;3.17;100.00;98689.06;5009811;28;20220;-54
2021/12/08 04:11:06;;;;;;;6.20;5.60;;;;;;;3.20;100.00;98692.47;5015788;28;20676;-54
2021/12/08 04:13:46;;;;;;;6.00;5.40;;;;;;;3.25;100.00;98695.03;5002006;28;20599;-54
2021/12/08 04:16:15;;;;;;;6.10;5.50;;;;;;;3.30;100.00;98702.66;4998820;28;20192;-53
2021/12/08 04:18:40;;;;;;;6.30;5.80;;;;;;;3.34;100.00;98709.44;5001915;28;20196;-56
2021/12/08 04:21:09;;;;;;;6.13;5.43;;;;;;;3.37;100.00;98713.72;4998360;28;20733;-55
2021/12/08 04:23:38;;;;;;;5.53;5.03;;;;;;;3.40;100.00;98711.97;4998489;28;20511;-55
2021/12/08 04:26:09;;;;;;;5.83;4.97;;;;;;;3.44;100.00;98710.25;5001210;28;20583;-54
2021/12/08 04:28:35;;;;;;;5.40;4.87;;;;;;;3.46;100.00;98704.28;5013019;28;20189;-54
2021/12/08 04:31:16;;;;;;;5.60;5.13;;;;;;;3.49;100.00;98703.41;5010521;28;20197;-54
2021/12/08 04:33:42;;;;;;;5.47;4.97;;;;;;;3.51;100.00;98706.81;5004407;28;20207;-54
2021/12/08 04:36:11;;;;;;;6.33;5.40;;;;;;;3.53;100.00;98699.97;5001529;28;20533;-54
2021/12/08 04:38:41;;;;;;;5.80;4.97;;;;;;;3.54;100.00;98703.38;5005345;28;20579;-52
2021/12/08 04:41:13;;;;;;;7.20;5.80;;;;;;;3.52;100.00;98690.59;5000853;28;20195;-54
2021/12/08 04:44:06;;;;;;;6.13;5.53;;;;;;;3.52;100.00;98688.03;5014322;28;20192;-54
2021/12/08 04:49:26;;;;;;;9.07;6.60;;;;;;;3.51;100.00;98674.41;5002662;28;22068;-55
2021/12/08 05:00:24;;;;;;;8.20;7.10;;;;;;;3.36;100.00;98664.25;5001698;28;20258;-54
2021/12/08 05:06:00;;;;;;;8.33;7.37;;;;;;;3.31;100.00;98650.66;5002972;28;20776;-55
2021/12/08 05:08:24;;;;;;;9.33;7.93;;;;;;;3.25;100.00;98648.13;4995614;28;20192;-55
2021/12/08 05:10:52;;;;;;;9.93;7.33;;;;;;;3.19;100.00;98638.78;5002561;28;20484;-54
2021/12/08 05:13:18;;;;;;;8.20;7.27;;;;;;;3.16;100.00;98621.78;5002751;28;20232;-54
2021/12/08 05:15:53;;;;;;;10.10;7.37;;;;;;;3.14;100.00;98623.50;5007100;28;20584;-54
2021/12/08 05:18:22;;;;;;;8.77;7.70;;;;;;;3.10;100.00;98620.97;5016980;28;20695;-55
2021/12/08 05:20:52;;;;;;;9.17;7.13;;;;;;;3.09;100.00;98642.28;5016581;28;20180;-54
2021/12/08 05:23:32;;;;;;;8.40;7.60;;;;;;;3.08;100.00;98636.28;5014128;28;20930;-55
2021/12/08 05:26:02;;;;;;;10.40;8.47;;;;;;;3.08;100.00;98620.97;5011357;28;20185;-54
2021/12/08 05:28:29;;;;;;;9.93;7.87;;;;;;;3.09;100.00;98622.66;5010265;28;20211;-55
2021/12/08 05:31:10;;;;;;;9.13;7.33;;;;;;;3.11;100.00;98651.63;5009836;28;20758;-54
2021/12/08 05:33:37;;;;;;;8.13;7.33;;;;;;;3.10;100.00;98638.84;5012992;28;20234;-55
2021/12/08 05:36:03;;;;;;;8.97;7.77;;;;;;;3.11;100.00;98630.31;5011187;28;20191;-54
2021/12/08 05:38:29;;;;;;;11.47;8.40;;;;;;;3.08;100.00;98631.19;5013208;28;20205;-55
2021/12/08 05:41:00;;;;;;;9.20;8.23;;;;;;;3.05;100.00;98628.63;5015806;28;20594;-53
2021/12/08 05:43:27;;;;;;;9.30;8.30;;;;;;;3.02;100.00;98646.56;5000607;28;20218;-54
2021/12/08 05:45:53;;;;;;;10.20;8.53;;;;;;;3.02;100.00;98646.56;5013973;28;20218;-54
2021/12/08 05:48:20;;;;;;;9.40;8.50;;;;;;;3.04;100.00;98653.34;5006473;28;20394;-54
2021/12/08 05:50:59;;;;;;;9.83;8.00;;;;;;;3.08;100.00;98638.84;5011749;28;20489;-54
2021/12/08 05:53:26;;;;;;;9.10;7.93;;;;;;;3.12;100.00;98637.13;5005449;28;20200;-54
2021/12/08 05:55:53;;;;;;;8.77;7.97;;;;;;;3.16;100.00;98651.59;5023223;28;20176;-53
2021/12/08 05:58:21;;;;;;;8.10;7.33;;;;;;;3.20;100.00;98658.38;5013163;28;20264;-54
2021/12/08 06:00:49;;;;;;;7.90;7.20;;;;;;;3.24;100.00;98664.34;5007593;28;20184;-54
2021/12/08 06:03:16;;;;;;;8.77;7.13;;;;;;;3.28;100.00;98673.69;5005220;28;20200;-54
2021/12/08 06:05:45;;;;;;;8.47;7.67;;;;;;;3.33;100.00;98687.28;5001232;28;20189;-54
2021/12/08 06:08:11;;;;;;;7.37;6.67;;;;;;;3.36;100.00;98682.16;5011796;28;20228;-54
2021/12/08 06:10:37;;;;;;;8.20;7.40;;;;;;;3.38;100.00;98675.31;5051684;28;20184;-54
2021/12/08 06:13:05;;;;;;;8.70;7.80;;;;;;;3.37;100.00;98665.13;5014754;28;20196;-54
2021/12/08 06:15:31;;;;;;;8.30;7.47;;;;;;;3.35;100.00;98671.09;4990515;28;20558;-54
2021/12/08 06:17:57;;;;;;;9.07;7.83;;;;;;;3.37;100.00;98672.78;5002298;28;20195;-54
2021/12/08 06:20:23;;;;;;;8.30;7.10;;;;;;;3.37;100.00;98678.75;5016325;28;20202;-54
2021/12/08 06:22:51;;;;;;;9.13;7.43;;;;;;;3.37;100.00;98650.63;5008428;28;20248;-54
2021/12/08 06:25:17;;;;;;;8.30;7.40;;;;;;;3.39;100.00;98660.84;5011862;28;20188;-54
2021/12/08 06:27:44;;;;;;;7.87;7.07;;;;;;;3.38;100.00;98680.44;4998992;28;20201;-54
2021/12/08 06:30:13;;;;;;;6.73;6.13;;;;;;;3.40;100.00;98675.34;4993574;28;20271;-54
2021/12/08 06:32:38;;;;;;;7.87;7.07;;;;;;;3.41;100.00;98657.41;5003552;28;20298;-54
2021/12/08 06:35:08;;;;;;;10.97;7.57;;;;;;;3.37;100.00;98657.44;4991848;28;20189;-54
2021/12/08 06:37:38;;;;;;;8.30;7.40;;;;;;;3.35;100.00;98658.31;4995024;28;20205;-54
2021/12/08 06:40:24;;;;;;;8.43;7.60;;;;;;;3.35;100.00;98665.97;4995520;28;20189;-54
2021/12/08 06:42:53;;;;;;;7.70;7.00;;;;;;;3.35;100.00;98668.53;4999234;28;20264;-54
2021/12/08 06:45:23;;;;;;;7.27;6.57;;;;;;;3.40;100.00;98681.28;4993158;28;20206;-54
2021/12/08 06:47:51;;;;;;;7.43;6.63;;;;;;;3.43;100.00;98699.19;5004075;28;20309;-54
2021/12/08 06:50:24;;;;;;;7.17;6.47;;;;;;;3.46;100.00;98699.16;4999465;28;20724;-54
2021/12/08 06:52:50;;;;;;;7.67;6.77;;;;;;;3.48;100.00;98706.81;5006997;28;20555;-53
2021/12/08 06:55:21;;;;;;;6.53;5.93;;;;;;;3.49;100.00;98704.25;5010981;28;20190;-54
2021/12/08 06:58:00;;;;;;;6.37;5.73;;;;;;;3.51;100.00;98705.09;5016934;28;20204;-54
2021/12/08 07:00:49;;;;;;;6.83;6.17;;;;;;;3.51;100.00;98701.69;5020115;28;20189;-54
2021/12/08 07:08:50;;;;;;;6.57;5.97;;;;;;;3.49;100.00;98701.69;5015343;28;20746;-54
2021/12/08 07:11:19;;;;;;;7.10;6.40;;;;;;;3.48;100.00;98699.97;5008785;28;20250;-54
2021/12/08 07:13:47;;;;;;;8.70;6.97;;;;;;;3.46;100.00;98696.63;5013246;28;20243;-54
2021/12/08 07:16:22;;;;;;;7.67;6.97;;;;;;;3.42;100.00;98683.81;5012824;28;20197;-54
2021/12/08 07:19:10;;;;;;;8.27;7.47;;;;;;;3.35;100.00;98681.31;5012652;28;20606;-55
2021/12/08 07:21:40;;;;;;;8.10;7.30;;;;;;;3.28;100.00;98684.75;5014278;28;20801;-55
2021/12/08 07:24:13;;;;;;;9.53;7.27;;;;;;;3.25;100.00;98678.81;5013366;28;20675;-54
2021/12/08 07:26:40;;;;;;;9.63;8.10;;;;;;;3.22;100.00;98677.13;5014966;28;20241;-54
2021/12/08 07:29:12;;;;;;;8.50;7.43;;;;;;;3.20;100.00;98683.97;5007412;28;20592;-54
2021/12/08 07:31:42;;;;;;;9.03;8.13;;;;;;;3.18;100.00;98683.94;5012417;28;20184;-54
2021/12/08 07:34:15;;;;;;;7.90;7.20;;;;;;;3.18;100.00;98672.88;5010608;28;20200;-54
2021/12/08 07:36:43;;;;;;;8.87;7.93;;;;;;;3.17;100.00;98658.41;5012254;28;20737;-54
2021/12/08 07:39:17;;;;;;;11.87;9.30;;;;;;;3.16;100.00;98661.81;5014550;28;20202;-54
2021/12/08 07:41:48;;;;;;;12.43;9.80;;;;;;;3.16;100.00;98666.94;5012036;28;20184;-54
2021/12/08 07:44:15;;;;;;;10.03;9.03;;;;;;;3.18;100.00;98680.56;5007890;28;20225;-54
2021/12/08 07:46:46;;;;;;;9.20;8.37;;;;;;;3.23;100.00;98680.53;5013139;28;20212;-54
2021/12/08 07:49:21;;;;;;;9.83;8.83;;;;;;;3.26;100.00;98677.97;5021029;28;20188;-54
2021/12/08 07:51:51;;;;;;;8.80;8.00;;;;;;;3.30;100.00;98683.03;5018978;28;20186;-54
2021/12/08 07:54:18;;;;;;;10.10;8.13;;;;;;;3.32;100.00;98677.94;5027855;28;20216;-55
2021/12/08 07:56:48;;;;;;;8.30;7.50;;;;;;;3.35;100.00;98678.75;5013881;28;20282;-54
2021/12/08 07:59:16;;;;;;;8.83;7.93;;;;;;;3.38;100.00;98679.59;5006904;28;20554;-54
2021/12/08 08:01:45;;;;;;;10.03;9.10;;;;;;;3.40;100.00;98681.28;5004968;28;20257;-54
2021/12/08 08:04:16;;;;;;;9.90;8.90;;;;;;;3.41;100.00;98683.00;5049762;28;20279;-54
2021/12/08 08:06:45;;;;;;;9.33;8.40;;;;;;;3.46;100.00;98695.75;5008291;28;20555;-54
2021/12/08 08:09:18;;;;;;;8.50;7.70;;;;;;;3.51;100.00;98706.81;5018318;28;20256;-54
2021/12/08 08:11:47;;;;;;;8.77;7.87;;;;;;;3.59;100.00;98699.09;5030953;28;20704;-54
2021/12/08 08:14:18;;;;;;;8.03;7.23;;;;;;;3.64;100.00;98695.63;5020119;28;20225;-54
2021/12/08 08:16:44;;;;;;;8.03;7.23;;;;;;;3.68;100.00;98704.13;5022866;28;20295;-54
2021/12/08 08:19:15;;;;;;;7.63;6.93;;;;;;;3.72;100.00;98708.38;5011473;28;20212;-54
2021/12/08 08:21:48;;;;;;;7.73;6.93;;;;;;;3.74;100.00;98695.56;5029047;28;20203;-54
2021/12/08 08:24:14;;;;;;;7.33;6.70;;;;;;;3.74;100.00;98693.88;5070028;28;20587;-54
2021/12/08 08:26:42;;;;;;;7.90;7.10;;;;;;;3.75;100.00;98684.47;5008600;28;20340;-54
2021/12/08 08:29:08;;;;;;;7.97;7.17;;;;;;;3.76;100.00;98696.41;5011136;28;20231;-54
2021/12/08 08:31:47;;;;;;;8.90;8.10;;;;;;;3.79;100.00;98706.63;5011170;28;20286;-54
2021/12/08 08:34:12;;;;;;;8.33;7.43;;;;;;;3.81;100.00;98710.03;5009511;28;20215;-54
2021/12/08 08:36:43;;;;;;;9.77;8.33;;;;;;;3.84;100.00;98709.16;5014635;28;20265;-54
2021/12/08 08:39:27;;;;;;;11.40;9.50;;;;;;;3.89;100.00;98702.31;5013439;28;20271;-53
2021/12/08 08:42:05;;;;;;;10.40;9.30;;;;;;;3.90;100.00;98697.16;5015077;28;20554;-54
2021/12/08 08:44:54;;;;;;;13.03;11.00;;;;;;;3.94;100.00;98687.75;5018441;28;20192;-54
2021/12/08 08:47:45;;;;;;;12.57;10.50;;;;;;;3.95;100.00;98681.75;5013557;28;20239;-54
2021/12/08 08:50:16;;;;;;;10.77;9.67;;;;;;;3.92;100.00;98680.09;5007149;28;20511;-55
2021/12/08 08:52:46;;;;;;;12.10;9.07;;;;;;;3.91;100.00;98691.19;5011156;28;20680;-54
2021/12/08 08:55:27;;;;;;;10.53;8.90;;;;;;;3.94;100.00;98701.41;5012018;28;20230;-54
2021/12/08 08:57:53;;;;;;;10.57;9.23;;;;;;;3.99;100.00;98711.59;5015273;28;20246;-54
2021/12/08 09:00:45;;;;;;;9.67;8.67;;;;;;;4.04;100.00;98719.25;5014720;28;20299;-55
2021/12/08 09:03:20;;;;;;;9.53;8.53;;;;;;;4.10;100.00;98732.00;5014717;28;20196;-55
2021/12/08 09:05:54;;;;;;;9.70;8.70;;;;;;;4.17;100.00;98737.91;5012900;28;20571;-54
2021/12/08 09:08:23;;;;;;;9.57;8.50;;;;;;;4.24;100.00;98740.41;5009668;28;20211;-54
2021/12/08 09:10:54;;;;;;;9.70;8.70;;;;;;;4.32;100.00;98747.19;5011206;28;20195;-54
2021/12/08 09:13:22;;;;;;;9.80;8.40;;;;;;;4.38;100.00;98752.25;5018085;28;20287;-54
2021/12/08 09:15:52;;;;;;;9.17;8.27;;;;;;;4.46;100.00;98765.00;5012520;28;20200;-54
2021/12/08 09:18:25;;;;;;;9.23;8.27;;;;;;;4.49;100.00;98759.84;5009503;28;20217;-54
2021/12/08 09:21:00;;;;;;;8.97;8.00;;;;;;;4.50;100.00;98764.97;5007924;28;20192;-54
2021/12/08 09:23:32;;;;;;;11.37;10.23;;;;;;;4.50;100.00;98769.25;5011829;28;20293;-54
2021/12/08 09:26:02;;;;;;;10.93;9.90;;;;;;;4.48;100.00;98759.00;4992586;28;20183;-54
2021/12/08 09:28:34;;;;;;;10.00;9.00;;;;;;;4.46;100.00;98759.88;5005169;28;20660;-54
2021/12/08 09:31:11;;;;;;;11.03;9.83;;;;;;;4.46;100.00;98760.75;5038223;28;20565;-54
2021/12/08 09:34:02;;;;;;;9.73;8.83;;;;;;;4.45;100.00;98763.28;5005488;28;20515;-54
2021/12/08 09:36:41;;;;;;;9.00;8.10;;;;;;;4.43;100.00;98758.19;5011243;28;20223;-54
2021/12/08 09:39:20;;;;;;;10.73;8.30;;;;;;;4.43;100.00;98755.63;5079441;28;20550;-54
2021/12/08 09:41:51;;;;;;;8.50;7.50;;;;;;;4.45;100.00;98761.59;5024937;28;20203;-54
2021/12/08 09:44:22;;;;;;;7.80;7.00;;;;;;;4.48;100.00;98747.91;5021299;28;20195;-54
2021/12/08 09:46:49;;;;;;;8.67;7.47;;;;;;;4.52;100.00;98755.53;5011638;28;20219;-54
2021/12/08 09:49:18;;;;;;;8.63;7.83;;;;;;;4.57;100.00;98753.81;5040830;28;20191;-54
2021/12/08 09:51:44;;;;;;;9.10;6.90;;;;;;;4.63;100.00;98752.91;5011501;28;20192;-54
2021/12/08 09:54:10;;;;;;;9.67;7.57;;;;;;;4.65;100.00;98758.84;5016265;28;20227;-54
2021/12/08 09:56:36;;;;;;;8.00;7.20;;;;;;;4.67;100.00;98757.13;5012828;28;20224;-54
2021/12/08 09:59:04;;;;;;;7.63;6.93;;;;;;;4.69;100.00;98757.94;5007702;28;20224;-54
2021/12/08 10:01:30;;;;;;;6.87;6.23;;;;;;;4.75;100.00;98748.50;5008575;28;20195;-54
2021/12/08 10:03:56;;;;;;;6.80;6.10;;;;;;;4.80;100.00;98750.16;5010681;28;20561;-54
2021/12/08 10:06:23;;;;;;;6.80;6.13;;;;;;;4.84;100.00;98741.56;5014577;28;20212;-54
2021/12/08 10:08:49;;;;;;;7.37;6.57;;;;;;;4.89;100.00;98733.81;5016534;28;20192;-54
2021/12/08 10:11:16;;;;;;;5.87;5.33;;;;;;;4.93;100.00;98740.63;5049281;28;20244;-54
2021/12/08 10:13:44;;;;;;;5.70;5.20;;;;;;;4.96;100.00;98740.59;5014782;28;20294;-54
2021/12/08 10:16:12;;;;;;;6.17;5.57;;;;;;;4.98;100.00;98735.44;5011001;28;20205;-54
2021/12/08 10:18:37;;;;;;;6.77;6.03;;;;;;;4.97;100.00;98729.47;5008724;28;21719;-55
2021/12/08 10:21:04;;;;;;;6.67;6.00;;;;;;;4.97;100.00;98731.19;5016586;28;20280;-54
2021/12/08 10:23:35;;;;;;;6.60;6.00;;;;;;;4.98;100.00;98723.50;5015302;28;20212;-55
2021/12/08 10:26:06;;;;;;;5.30;4.90;;;;;;;5.02;100.00;98716.59;5006640;28;20250;-55
2021/12/08 10:28:33;;;;;;;7.53;6.70;;;;;;;5.05;100.00;98714.00;5022546;28;20196;-55
2021/12/08 10:31:07;;;;;;;6.17;5.57;;;;;;;5.09;100.00;98710.50;5048472;28;20199;-55
2021/12/08 10:36:46;;;;;;;6.30;5.70;;;;;;;5.22;100.00;98695.84;5022961;28;20215;-55
2021/12/08 10:39:32;;;;;;;6.30;5.70;;;;;;;5.27;100.00;98693.22;5011731;28;20241;-54
2021/12/08 10:42:10;;;;;;;5.70;5.20;;;;;;;5.30;100.00;98695.75;5011755;28;20268;-54
2021/12/08 10:47:23;;;;;;;6.13;5.57;;;;;;;5.38;100.00;98693.91;5013492;28;20221;-54
2021/12/08 10:55:21;;;;;;;6.73;5.83;;;;;;;5.58;100.00;98688.53;5015229;28;20217;-54
2021/12/08 10:57:50;;;;;;;7.07;6.37;;;;;;;5.61;100.00;98695.31;5012536;28;20245;-54
2021/12/08 11:00:18;;;;;;;6.60;6.00;;;;;;;5.62;100.00;98694.44;5011335;28;20188;-54
2021/12/08 11:02:46;;;;;;;6.10;5.50;;;;;;;5.63;100.00;98696.97;5013855;28;20203;-54
2021/12/08 11:05:37;;;;;;;7.10;6.13;;;;;;;5.63;100.00;98696.16;5013335;28;20196;-54
2021/12/08 11:08:11;;;;;;;7.57;6.80;;;;;;;5.62;100.00;98691.88;5011317;28;20221;-54
2021/12/08 11:10:57;;;;;;;7.53;6.83;;;;;;;5.63;100.00;98696.97;5012294;28;20190;-54
2021/12/08 11:13:29;;;;;;;6.97;6.00;;;;;;;5.65;100.00;98699.53;5014545;28;20218;-55
2021/12/08 11:16:02;;;;;;;6.80;6.20;;;;;;;5.70;100.00;98702.03;5002140;28;20197;-54
2021/12/08 11:18:30;;;;;;;6.97;6.27;;;;;;;5.72;100.00;98702.88;4998359;28;20194;-54
2021/12/08 11:21:05;;;;;;;6.70;6.10;;;;;;;5.75;100.00;98702.78;5001866;28;20190;-55
2021/12/08 11:23:47;;;;;;;7.57;6.77;;;;;;;5.78;100.00;98702.75;4998205;28;20188;-55
2021/12/08 11:26:26;;;;;;;6.93;6.33;;;;;;;5.82;100.00;98701.00;4990457;28;20196;-54
2021/12/08 11:29:08;;;;;;;7.17;6.57;;;;;;;5.85;100.00;98703.50;5011902;28;20755;-54
2021/12/08 11:31:39;;;;;;;7.57;6.77;;;;;;;5.86;100.00;98700.94;4997001;28;20186;-54
2021/12/08 11:34:12;;;;;;;7.20;6.50;;;;;;;5.89;100.00;98707.75;4992527;28;20224;-54
2021/12/08 11:36:38;;;;;;;6.90;6.20;;;;;;;5.90;100.00;98707.69;4993645;28;20222;-55
2021/12/08 11:39:12;;;;;;;8.13;6.33;;;;;;;5.93;100.00;98707.66;5000380;28;20189;-54
2021/12/08 11:41:42;;;;;;;6.20;5.57;;;;;;;5.95;100.00;98705.91;4994183;28;20187;-54
2021/12/08 11:44:10;;;;;;;6.80;5.80;;;;;;;5.98;100.00;98711.88;5000226;28;20736;-54
2021/12/08 11:46:45;;;;;;;6.13;5.53;;;;;;;6.01;100.00;98706.75;5002720;28;20211;-54
2021/12/08 11:49:11;;;;;;;7.30;5.60;;;;;;;6.03;100.00;98697.28;5009734;28;20578;-54
2021/12/08 11:51:42;;;;;;;6.70;6.03;;;;;;;6.07;100.00;98694.66;4999415;28;20187;-54
2021/12/08 11:54:21;;;;;;;6.37;5.57;;;;;;;6.12;100.00;98693.72;5007572;28;20726;-54
2021/12/08 11:56:47;;;;;;;5.93;5.40;;;;;;;6.16;100.00;98691.09;4992173;28;20725;-54
2021/12/08 11:59:13;;;;;;;5.97;5.37;;;;;;;6.20;100.00;98694.44;4995453;28;20185;-54
2021/12/08 12:01:39;;;;;;;5.77;5.17;;;;;;;6.25;100.00;98687.50;5099166;27;20200;-54
2021/12/08 12:04:08;;;;;;;6.20;5.60;;;;;;;6.29;100.00;98685.72;4996082;28;20204;-54
2021/12/08 12:06:35;;;;;;;5.67;4.90;;;;;;;6.29;100.00;98694.28;5000989;28;20213;-55
2021/12/08 12:09:04;;;;;;;5.87;4.87;;;;;;;6.33;100.00;98697.66;4994819;28;20198;-54
2021/12/08 12:11:29;;;;;;;6.30;5.67;;;;;;;6.34;100.00;98697.63;5014843;28;20277;-54
2021/12/08 12:13:57;;;;;;;6.57;5.87;;;;;;;6.33;100.00;98683.06;5002030;28;20298;-54
2021/12/08 12:16:23;;;;;;;6.70;6.10;;;;;;;6.33;100.00;98689.94;5005089;28;20312;-55
2021/12/08 12:18:52;;;;;;;6.70;6.10;;;;;;;6.32;100.00;98676.22;4995725;28;20197;-54
2021/12/08 12:21:37;;;;;;;6.50;5.87;;;;;;;6.34;100.00;98682.19;4987469;28;20190;-54
2021/12/08 12:24:12;;;;;;;6.80;6.20;;;;;;;6.34;100.00;98684.78;4999227;28;20659;-55
2021/12/08 12:27:07;;;;;;;6.23;5.63;;;;;;;6.35;100.00;98686.47;4998678;28;20217;-55
2021/12/08 12:30:03;;;;;;;7.13;5.80;;;;;;;6.34;100.00;98687.34;4994720;28;20648;-55
2021/12/08 12:32:37;;;;;;;6.60;5.80;;;;;;;6.34;100.00;98695.03;5010977;28;20255;-54
2021/12/08 12:35:25;;;;;;;6.30;5.70;;;;;;;6.31;100.00;98692.53;4991959;28;20202;-54
2021/12/08 12:38:06;;;;;;;6.73;6.00;;;;;;;6.26;100.00;98694.34;4997137;28;20206;-54